createdAt,value
2023-07-14T00:00:27.981Z,17.00
2023-07-14T00:02:55.083Z,17.00
2023-07-14T00:05:23.338Z,16.90
2023-07-14T00:07:51.564Z,16.90
2023-07-14T00:10:25.216Z,16.90
2023-07-14T00:12:54.707Z,16.80
2023-07-14T00:15:24.874Z,16.80
2023-07-14T00:17:52.882Z,16.70
2023-07-14T00:20:27.836Z,16.70
2023-07-14T00:22:55.512Z,16.70
2023-07-14T00:25:23.833Z,16.70
2023-07-14T00:27:54.752Z,16.70
2023-07-14T00:30:25.416Z,16.70
2023-07-14T00:32:53.688Z,16.70
2023-07-14T00:35:24.383Z,16.60
2023-07-14T00:37:52.572Z,16.60
2023-07-14T00:40:21.904Z,16.60
2023-07-14T00:42:51.604Z,16.50
2023-07-14T00:45:20.385Z,16.60
2023-07-14T00:47:54.269Z,16.50
2023-07-14T00:50:31.210Z,16.50
2023-07-14T00:52:59.770Z,16.50
2023-07-14T00:55:56.716Z,16.50
2023-07-14T00:58:27.519Z,16.50
2023-07-14T01:01:01.262Z,16.60
2023-07-14T01:03:28.747Z,16.60
2023-07-14T01:05:56.201Z,16.50
2023-07-14T01:08:23.280Z,16.50
2023-07-14T01:10:50.444Z,16.30
2023-07-14T01:13:17.390Z,16.20
2023-07-14T01:15:44.361Z,16.30
2023-07-14T01:18:11.681Z,16.30
2023-07-14T01:20:39.653Z,16.30
2023-07-14T01:23:15.148Z,16.30
2023-07-14T01:25:58.665Z,16.40
2023-07-14T01:28:25.888Z,16.50
2023-07-14T01:30:52.844Z,16.40
2023-07-14T01:33:20.026Z,16.30
2023-07-14T01:35:54.905Z,16.20
2023-07-14T01:38:21.908Z,16.10
2023-07-14T01:40:48.869Z,16.00
2023-07-14T01:43:15.956Z,15.90
2023-07-14T01:45:47.024Z,15.90
2023-07-14T01:48:15.115Z,15.70
2023-07-14T01:50:59.698Z,15.50
2023-07-14T01:53:30.049Z,14.80
2023-07-14T01:55:58.214Z,15.30
2023-07-14T01:58:28.256Z,15.20
2023-07-14T02:00:55.378Z,15.20
2023-07-14T02:03:46.888Z,15.20
2023-07-14T02:06:15.946Z,15.30
2023-07-14T02:08:46.178Z,15.00
2023-07-14T02:11:23.866Z,14.90
2023-07-14T02:13:55.049Z,14.90
2023-07-14T02:16:21.959Z,15.00
2023-07-14T02:18:48.984Z,15.00
2023-07-14T02:21:22.093Z,15.00
2023-07-14T02:23:49.068Z,15.00
2023-07-14T02:26:34.844Z,14.90
2023-07-14T02:29:01.892Z,14.90
2023-07-14T02:31:53.025Z,14.90
2023-07-14T02:34:20.618Z,14.80
2023-07-14T02:37:03.202Z,14.70
2023-07-14T02:39:35.082Z,14.80
2023-07-14T02:42:01.990Z,14.70
2023-07-14T02:44:33.190Z,14.70
2023-07-14T02:47:21.465Z,14.60
2023-07-14T02:49:49.866Z,14.70
2023-07-14T02:52:17.079Z,14.70
2023-07-14T02:54:44.059Z,14.60
2023-07-14T02:57:11.034Z,14.50
2023-07-14T02:59:37.944Z,14.50
2023-07-14T03:02:06.595Z,14.50
2023-07-14T03:04:36.129Z,14.50
2023-07-14T03:07:04.076Z,14.50
2023-07-14T03:09:31.039Z,14.50
2023-07-14T03:11:57.920Z,14.40
2023-07-14T03:14:25.265Z,14.40
2023-07-14T03:16:52.353Z,14.40
2023-07-14T03:19:19.555Z,14.50
2023-07-14T03:21:46.725Z,14.50
2023-07-14T03:24:13.830Z,14.60
2023-07-14T03:26:41.204Z,14.50
2023-07-14T03:29:08.432Z,14.60
2023-07-14T03:31:35.544Z,14.60
2023-07-14T03:34:02.495Z,14.50
2023-07-14T03:36:29.554Z,14.50
2023-07-14T03:39:26.267Z,14.40
2023-07-14T03:41:54.022Z,14.40
2023-07-14T03:44:21.097Z,14.30
2023-07-14T03:46:48.172Z,14.40
2023-07-14T03:49:15.424Z,14.40
2023-07-14T03:51:42.685Z,14.50
2023-07-14T03:54:10.665Z,14.60
2023-07-14T03:56:37.709Z,14.70
2023-07-14T03:59:04.741Z,14.80
2023-07-14T04:01:31.698Z,14.90
2023-07-14T04:04:01.339Z,14.90
2023-07-14T04:06:29.529Z,14.90
2023-07-14T04:09:00.752Z,15.00
2023-07-14T04:11:27.969Z,15.00
2023-07-14T04:13:55.094Z,15.10
2023-07-14T04:16:25.085Z,15.20
2023-07-14T04:18:52.201Z,15.10
2023-07-14T04:21:25.441Z,15.10
2023-07-14T04:23:53.737Z,15.30
2023-07-14T04:26:20.958Z,15.60
2023-07-14T04:28:48.351Z,15.40
2023-07-14T04:31:15.262Z,13.70
2023-07-14T04:33:49.701Z,15.40
2023-07-14T04:36:16.834Z,15.40
2023-07-14T04:38:49.098Z,15.40
2023-07-14T04:41:15.944Z,15.40
2023-07-14T04:43:42.775Z,15.50
2023-07-14T04:46:10.909Z,15.60
2023-07-14T04:48:38.021Z,15.60
2023-07-14T04:51:04.852Z,15.70
2023-07-14T04:53:31.685Z,15.80
2023-07-14T04:55:58.733Z,15.80
2023-07-14T04:58:25.708Z,15.80
2023-07-14T05:00:52.617Z,15.80
2023-07-14T05:03:19.803Z,15.90
2023-07-14T05:05:47.103Z,16.00
2023-07-14T05:08:14.000Z,16.00
2023-07-14T05:10:40.925Z,16.00
2023-07-14T05:13:07.943Z,16.00
2023-07-14T05:15:34.999Z,16.00
2023-07-14T05:18:02.057Z,16.20
2023-07-14T05:20:30.350Z,16.30
2023-07-14T05:22:57.539Z,16.40
2023-07-14T05:25:24.656Z,16.50
2023-07-14T05:27:51.628Z,16.60
2023-07-14T05:30:19.844Z,16.60
2023-07-14T05:32:47.398Z,16.70
2023-07-14T05:35:14.593Z,16.70
2023-07-14T05:37:41.824Z,16.60
2023-07-14T05:40:11.561Z,16.70
2023-07-14T05:42:39.316Z,16.80
2023-07-14T05:45:07.215Z,16.80
2023-07-14T05:47:35.466Z,16.90
2023-07-14T05:50:02.593Z,17.00
2023-07-14T05:52:29.720Z,17.00
2023-07-14T05:54:56.646Z,17.30
2023-07-14T05:57:23.551Z,17.10
2023-07-14T05:59:50.431Z,17.30
2023-07-14T06:02:17.407Z,17.40
2023-07-14T06:04:44.337Z,17.50
2023-07-14T06:07:11.559Z,17.80
2023-07-14T06:09:39.070Z,17.70
2023-07-14T06:12:06.717Z,17.70
2023-07-14T06:14:34.436Z,17.70
2023-07-14T06:17:02.083Z,17.70
2023-07-14T06:19:29.274Z,17.80
2023-07-14T06:21:56.847Z,18.00
2023-07-14T06:24:24.404Z,18.20
2023-07-14T06:26:52.222Z,18.00
2023-07-14T06:29:19.751Z,18.30
2023-07-14T06:31:46.769Z,18.10
2023-07-14T06:34:14.873Z,18.30
2023-07-14T06:36:41.935Z,18.50
2023-07-14T06:39:09.188Z,18.70
2023-07-14T06:41:36.068Z,18.70
2023-07-14T06:44:19.748Z,18.80
2023-07-14T06:46:50.998Z,18.90
2023-07-14T06:49:21.956Z,19.10
2023-07-14T06:51:49.750Z,19.10
2023-07-14T06:54:17.344Z,19.20
2023-07-14T06:56:44.227Z,19.20
2023-07-14T06:59:11.136Z,19.30
2023-07-14T07:01:38.115Z,19.40
2023-07-14T07:04:05.550Z,19.50
2023-07-14T07:06:32.588Z,19.60
2023-07-14T07:08:59.572Z,19.70
2023-07-14T07:11:26.530Z,19.90
2023-07-14T07:13:53.518Z,19.90
2023-07-14T07:16:20.533Z,20.00
2023-07-14T07:18:47.460Z,20.30
2023-07-14T07:21:14.779Z,20.30
2023-07-14T07:23:41.823Z,20.30
2023-07-14T07:26:09.169Z,20.50
2023-07-14T07:28:36.362Z,20.60
2023-07-14T07:31:13.386Z,20.70
2023-07-14T07:33:41.183Z,20.80
2023-07-14T07:36:16.508Z,20.90
2023-07-14T07:38:53.056Z,21.00
2023-07-14T07:41:26.506Z,21.10
2023-07-14T07:43:53.536Z,21.20
2023-07-14T07:46:22.720Z,21.40
2023-07-14T07:48:50.402Z,21.50
2023-07-14T07:51:17.471Z,21.60
2023-07-14T07:53:44.474Z,21.80
2023-07-14T07:56:12.476Z,22.00
2023-07-14T07:58:39.830Z,22.30
2023-07-14T08:01:07.389Z,22.20
2023-07-14T08:03:35.442Z,22.00
2023-07-14T08:06:04.013Z,22.00
2023-07-14T08:08:31.040Z,22.10
2023-07-14T08:10:58.446Z,22.20
2023-07-14T08:13:26.897Z,22.30
2023-07-14T08:15:57.659Z,22.40
2023-07-14T08:18:25.308Z,22.60
2023-07-14T08:20:52.688Z,22.90
2023-07-14T08:23:21.357Z,23.30
2023-07-14T08:25:56.220Z,23.30
2023-07-14T08:28:23.237Z,23.50
2023-07-14T08:30:51.298Z,23.50
2023-07-14T08:33:19.365Z,23.60
2023-07-14T08:35:46.779Z,23.40
2023-07-14T08:38:13.742Z,23.30
2023-07-14T08:40:46.405Z,23.40
2023-07-14T08:43:38.333Z,23.30
2023-07-14T08:46:11.085Z,23.50
2023-07-14T08:48:39.549Z,23.70
2023-07-14T08:51:19.462Z,24.00
2023-07-14T08:53:51.840Z,24.20
2023-07-14T08:56:20.090Z,24.40
2023-07-14T08:58:47.152Z,24.60
2023-07-14T09:01:56.453Z,24.70
2023-07-14T09:04:36.859Z,24.70
2023-07-14T09:07:05.537Z,24.70
2023-07-14T09:09:37.237Z,24.70
2023-07-14T09:12:07.128Z,25.10
2023-07-14T09:14:44.435Z,25.30
2023-07-14T09:17:17.459Z,25.60
2023-07-14T09:20:07.684Z,25.80
2023-07-14T09:23:01.975Z,25.70
2023-07-14T09:25:44.857Z,25.90
2023-07-14T09:28:42.425Z,26.10
2023-07-14T09:31:40.524Z,26.00
2023-07-14T09:34:25.064Z,25.60
2023-07-14T09:36:52.981Z,25.30
2023-07-14T09:39:29.603Z,25.50
2023-07-14T09:41:57.985Z,25.70
2023-07-14T09:44:25.542Z,25.90
2023-07-14T09:46:52.529Z,26.10
2023-07-14T09:49:39.735Z,26.30
2023-07-14T09:52:16.406Z,26.20
2023-07-14T09:54:50.124Z,26.00
2023-07-14T09:57:29.070Z,25.70
2023-07-14T10:00:16.137Z,25.40
2023-07-14T10:02:43.156Z,25.30
2023-07-14T10:05:29.180Z,25.20
2023-07-14T10:07:56.169Z,25.10
2023-07-14T10:10:27.494Z,24.90
2023-07-14T10:12:54.548Z,24.80
2023-07-14T10:15:32.889Z,25.20
2023-07-14T10:18:01.402Z,25.30
2023-07-14T10:20:28.617Z,25.30
2023-07-14T10:22:58.481Z,25.20
2023-07-14T10:25:25.835Z,25.10
2023-07-14T10:28:08.514Z,25.00
2023-07-14T10:30:38.047Z,24.80
2023-07-14T10:33:05.067Z,24.60
2023-07-14T10:35:32.976Z,24.80
2023-07-14T10:38:46.581Z,25.30
2023-07-14T10:41:13.782Z,26.10
2023-07-14T10:43:50.212Z,26.60
2023-07-14T10:46:32.848Z,26.80
2023-07-14T10:49:06.442Z,26.80
2023-07-14T10:51:53.244Z,27.10
2023-07-14T10:54:21.236Z,27.60
2023-07-14T10:56:50.354Z,28.00
2023-07-14T10:59:52.269Z,28.20
2023-07-14T11:02:36.358Z,28.10
2023-07-14T11:05:11.503Z,28.20
2023-07-14T11:07:38.532Z,28.40
2023-07-14T11:10:28.533Z,28.50
2023-07-14T11:13:02.831Z,28.60
2023-07-14T11:15:42.306Z,28.40
2023-07-14T11:18:14.169Z,28.60
2023-07-14T11:20:53.267Z,28.80
2023-07-14T11:23:40.239Z,28.50
2023-07-14T11:26:13.792Z,28.10
2023-07-14T11:28:51.380Z,27.80
2023-07-14T11:31:35.972Z,27.60
2023-07-14T11:34:21.205Z,27.60
2023-07-14T11:37:12.934Z,28.00
2023-07-14T11:39:49.190Z,27.90
2023-07-14T11:42:24.398Z,27.40
2023-07-14T11:44:52.017Z,27.90
2023-07-14T11:47:26.240Z,28.30
2023-07-14T11:49:54.565Z,28.70
2023-07-14T11:52:26.743Z,29.20
2023-07-14T11:54:53.648Z,29.30
2023-07-14T11:57:21.068Z,29.00
2023-07-14T12:00:14.160Z,28.50
2023-07-14T12:02:50.906Z,28.20
2023-07-14T12:05:19.751Z,27.70
2023-07-14T12:08:05.668Z,27.40
2023-07-14T12:10:44.590Z,27.10
2023-07-14T12:13:20.276Z,27.00
2023-07-14T12:15:49.148Z,26.90
2023-07-14T12:18:36.253Z,27.10
2023-07-14T12:21:16.098Z,28.10
2023-07-14T12:24:06.474Z,28.10
2023-07-14T12:26:33.409Z,28.30
2023-07-14T12:29:06.270Z,28.10
2023-07-14T12:31:36.745Z,27.80
2023-07-14T12:34:04.593Z,27.60
2023-07-14T12:36:32.866Z,27.40
2023-07-14T12:39:01.077Z,27.00
2023-07-14T12:41:31.107Z,27.10
2023-07-14T12:44:01.322Z,28.00
2023-07-14T12:46:32.493Z,28.90
2023-07-14T12:49:04.377Z,29.30
2023-07-14T12:51:34.485Z,29.60
2023-07-14T12:54:04.664Z,30.00
2023-07-14T12:56:32.070Z,29.80
2023-07-14T12:59:05.502Z,29.40
2023-07-14T13:01:34.608Z,28.60
2023-07-14T13:04:03.975Z,28.20
2023-07-14T13:06:30.928Z,28.20
2023-07-14T13:08:58.415Z,28.70
2023-07-14T13:11:28.876Z,28.50
2023-07-14T13:13:57.554Z,28.20
2023-07-14T13:16:34.672Z,27.70
2023-07-14T13:19:01.871Z,27.50
2023-07-14T13:21:37.753Z,27.70
2023-07-14T13:24:27.594Z,28.90
2023-07-14T13:27:00.558Z,30.00
2023-07-14T13:29:40.075Z,31.30
2023-07-14T13:32:23.272Z,31.40
2023-07-14T13:34:52.114Z,31.50
2023-07-14T13:37:19.637Z,31.50
2023-07-14T13:39:46.565Z,31.50
2023-07-14T13:42:35.588Z,31.40
2023-07-14T13:45:04.123Z,30.90
2023-07-14T13:47:39.820Z,30.20
2023-07-14T13:50:06.762Z,29.60
2023-07-14T13:52:34.594Z,29.20
2023-07-14T13:55:06.120Z,29.10
2023-07-14T13:57:32.907Z,29.80
2023-07-14T14:00:02.418Z,30.50
2023-07-14T14:02:36.068Z,30.60
2023-07-14T14:05:07.018Z,30.60
2023-07-14T14:07:35.055Z,30.80
2023-07-14T14:10:03.305Z,30.70
2023-07-14T14:12:30.133Z,30.60
2023-07-14T14:14:57.102Z,30.50
2023-07-14T14:17:26.375Z,30.90
2023-07-14T14:19:53.617Z,31.10
2023-07-14T14:22:20.417Z,30.60
2023-07-14T14:24:47.497Z,30.20
2023-07-14T14:27:14.340Z,29.60
2023-07-14T14:29:41.120Z,29.30
2023-07-14T14:32:16.553Z,29.80
2023-07-14T14:34:44.276Z,30.60
2023-07-14T14:37:11.556Z,31.10
2023-07-14T14:39:39.188Z,30.80
2023-07-14T14:42:06.382Z,30.50
2023-07-14T14:44:33.187Z,30.10
2023-07-14T14:47:01.432Z,29.60
2023-07-14T14:49:28.379Z,29.40
2023-07-14T14:51:56.152Z,30.00
2023-07-14T14:54:23.320Z,30.40
2023-07-14T14:56:50.148Z,30.40
2023-07-14T14:59:21.984Z,30.10
2023-07-14T15:01:49.976Z,29.70
2023-07-14T15:04:18.023Z,29.60
2023-07-14T15:06:47.195Z,29.40
2023-07-14T15:09:15.059Z,29.00
2023-07-14T15:14:10.011Z,28.20
2023-07-14T15:16:37.902Z,27.90
2023-07-14T15:19:05.266Z,27.70
2023-07-14T15:21:32.112Z,27.60
2023-07-14T15:24:00.541Z,27.40
2023-07-14T15:26:30.328Z,27.20
2023-07-14T15:28:58.776Z,27.10
2023-07-14T15:31:25.748Z,27.00
2023-07-14T15:33:52.630Z,27.00
2023-07-14T15:36:19.828Z,27.20
2023-07-14T15:38:47.472Z,27.50
2023-07-14T15:41:16.912Z,27.80
2023-07-14T15:43:48.712Z,28.00
2023-07-14T15:46:16.139Z,28.10
2023-07-14T15:48:43.995Z,28.10
2023-07-14T15:51:17.382Z,28.10
2023-07-14T15:53:44.291Z,28.20
2023-07-14T15:56:13.868Z,28.20
2023-07-14T15:58:41.271Z,28.30
2023-07-14T16:01:25.245Z,28.40
2023-07-14T16:03:55.001Z,28.30
2023-07-14T16:06:22.172Z,28.30
2023-07-14T16:08:52.330Z,28.20
2023-07-14T16:11:20.846Z,28.10
2023-07-14T16:13:47.595Z,28.20
2023-07-14T16:16:14.797Z,28.00
2023-07-14T16:18:42.992Z,27.80
2023-07-14T16:21:21.188Z,27.90
2023-07-14T16:23:48.067Z,27.80
2023-07-14T16:26:16.555Z,27.80
2023-07-14T16:28:43.406Z,27.80
2023-07-14T16:31:11.507Z,27.80
2023-07-14T16:33:38.369Z,27.80
2023-07-14T16:36:05.910Z,27.70
2023-07-14T16:38:33.371Z,27.40
2023-07-14T16:41:00.175Z,27.40
2023-07-14T16:43:27.359Z,27.30
2023-07-14T16:45:55.494Z,27.10
2023-07-14T16:48:22.418Z,27.00
2023-07-14T16:50:49.593Z,26.80
2023-07-14T16:53:17.475Z,26.50
2023-07-14T16:55:44.671Z,26.20
2023-07-14T16:58:18.967Z,26.20
2023-07-14T17:00:45.879Z,26.30
2023-07-14T17:03:19.023Z,26.50
2023-07-14T17:05:45.872Z,26.60
2023-07-14T17:08:23.014Z,26.70
2023-07-14T17:10:50.229Z,26.70
2023-07-14T17:13:26.179Z,26.70
2023-07-14T17:15:54.260Z,26.60
2023-07-14T17:18:22.727Z,26.40
2023-07-14T17:20:49.866Z,26.30
2023-07-14T17:23:20.798Z,26.10
2023-07-14T17:25:48.461Z,25.80
2023-07-14T17:28:16.695Z,25.40
2023-07-14T17:30:43.603Z,25.10
2023-07-14T17:33:10.357Z,24.80
2023-07-14T17:35:37.161Z,24.60
2023-07-14T17:38:04.020Z,24.40
2023-07-14T17:40:31.670Z,24.40
2023-07-14T17:43:05.497Z,24.30
2023-07-14T17:45:32.623Z,24.10
2023-07-14T17:47:59.446Z,23.90
2023-07-14T17:50:26.558Z,23.80
2023-07-14T17:52:56.416Z,23.70
2023-07-14T17:55:23.992Z,23.70
2023-07-14T17:57:51.907Z,23.50
2023-07-14T18:00:20.898Z,23.50
2023-07-14T18:02:57.021Z,23.40
2023-07-14T18:05:24.617Z,23.30
2023-07-14T18:07:51.868Z,23.20
2023-07-14T18:10:19.066Z,23.00
2023-07-14T18:12:45.957Z,22.90
2023-07-14T18:15:28.620Z,22.80
2023-07-14T18:17:55.762Z,22.60
2023-07-14T18:20:23.152Z,22.50
2023-07-14T18:22:50.126Z,22.50
2023-07-14T18:25:20.642Z,22.40
2023-07-14T18:27:50.922Z,22.30
2023-07-14T18:30:18.479Z,22.20
2023-07-14T18:32:45.335Z,22.00
2023-07-14T18:35:18.172Z,21.90
2023-07-14T18:37:45.050Z,21.90
2023-07-14T18:40:12.226Z,21.80
2023-07-14T18:42:39.058Z,21.80
2023-07-14T18:45:18.745Z,21.70
2023-07-14T18:47:45.580Z,21.70
2023-07-14T18:50:12.643Z,21.60
2023-07-14T18:52:42.470Z,21.20
2023-07-14T18:55:19.198Z,21.60
2023-07-14T18:57:46.084Z,21.30
2023-07-14T19:00:21.353Z,21.10
2023-07-14T19:02:49.016Z,21.00
2023-07-14T19:05:16.003Z,20.90
2023-07-14T19:07:47.261Z,20.80
2023-07-14T19:10:15.972Z,20.70
2023-07-14T19:12:43.128Z,20.60
2023-07-14T19:15:19.666Z,20.40
2023-07-14T19:17:47.528Z,20.40
2023-07-14T19:20:16.326Z,20.20
2023-07-14T19:22:45.131Z,20.20
2023-07-14T19:25:18.037Z,20.40
2023-07-14T19:27:48.949Z,20.40
2023-07-14T19:30:16.235Z,20.40
2023-07-14T19:32:46.766Z,20.30
2023-07-14T19:35:20.738Z,20.20
2023-07-14T19:37:48.034Z,20.00
2023-07-14T19:40:18.630Z,19.90
2023-07-14T19:42:48.684Z,19.80
2023-07-14T19:45:21.817Z,19.80
2023-07-14T19:47:48.822Z,19.80
2023-07-14T19:50:16.397Z,19.50
2023-07-14T19:52:43.657Z,19.40
2023-07-14T19:55:27.707Z,19.30
2023-07-14T19:57:55.789Z,19.20
2023-07-14T20:00:25.693Z,19.20
2023-07-14T20:02:52.875Z,19.10
2023-07-14T20:05:21.048Z,19.10
2023-07-14T20:07:49.941Z,19.00
2023-07-14T20:10:17.763Z,18.90
2023-07-14T20:12:44.760Z,18.90
2023-07-14T20:15:12.679Z,18.90
2023-07-14T20:17:39.628Z,18.80
2023-07-14T20:20:07.809Z,18.80
2023-07-14T20:22:34.744Z,18.70
2023-07-14T20:25:01.599Z,18.70
2023-07-14T20:27:28.852Z,18.70
2023-07-14T20:29:55.759Z,18.60
2023-07-14T20:32:24.667Z,18.60
2023-07-14T20:34:51.502Z,18.60
2023-07-14T20:37:18.612Z,18.60
2023-07-14T20:39:45.664Z,18.60
2023-07-14T20:42:13.613Z,18.50
2023-07-14T20:44:40.659Z,18.60
2023-07-14T20:47:18.100Z,18.60
2023-07-14T20:49:45.363Z,18.50
2023-07-14T20:52:22.659Z,18.40
2023-07-14T20:54:50.307Z,18.30
2023-07-14T20:57:18.321Z,18.30
2023-07-14T20:59:45.692Z,18.20
2023-07-14T21:02:23.814Z,18.20
2023-07-14T21:04:51.160Z,18.20
2023-07-14T21:07:18.984Z,18.20
2023-07-14T21:09:46.244Z,18.20
2023-07-14T21:12:13.999Z,18.20
2023-07-14T21:14:41.184Z,18.20
2023-07-14T21:17:12.345Z,18.30
2023-07-14T21:19:39.703Z,18.20
2023-07-14T21:22:09.732Z,18.20
2023-07-14T21:24:36.785Z,18.10
2023-07-14T21:27:03.752Z,18.20
2023-07-14T21:29:30.649Z,18.30
2023-07-14T21:31:57.505Z,18.40
2023-07-14T21:34:24.400Z,18.30
2023-07-14T21:36:51.457Z,18.20
2023-07-14T21:39:22.134Z,18.10
2023-07-14T21:41:52.537Z,18.00
2023-07-14T21:44:19.391Z,18.00
2023-07-14T21:46:47.146Z,17.90
2023-07-14T21:49:17.471Z,17.80
2023-07-14T21:51:44.652Z,17.70
2023-07-14T21:54:15.261Z,17.70
2023-07-14T21:56:44.025Z,17.70
2023-07-14T21:59:14.450Z,17.60
2023-07-14T22:01:42.410Z,17.70
2023-07-14T22:04:14.121Z,17.60
2023-07-14T22:06:40.975Z,17.50
2023-07-14T22:09:07.767Z,17.60
2023-07-14T22:11:34.940Z,17.50
2023-07-14T22:14:02.684Z,17.40
2023-07-14T22:16:29.517Z,17.20
2023-07-14T22:18:56.385Z,17.00
2023-07-14T22:21:23.816Z,17.00
2023-07-14T22:23:51.205Z,16.90
2023-07-14T22:26:20.162Z,16.90
2023-07-14T22:28:47.532Z,16.80
2023-07-14T22:31:15.774Z,16.70
2023-07-14T22:33:43.949Z,16.60
2023-07-14T22:36:11.429Z,16.60
2023-07-14T22:38:38.335Z,16.50
2023-07-14T22:41:11.234Z,16.50
2023-07-14T22:43:38.196Z,16.40
2023-07-14T22:46:05.148Z,16.40
2023-07-14T22:48:32.036Z,16.30
2023-07-14T22:51:00.155Z,16.30
2023-07-14T22:53:27.589Z,16.20
2023-07-14T22:55:55.148Z,16.10
2023-07-14T22:58:22.633Z,16.00
2023-07-14T23:00:54.212Z,16.10
2023-07-14T23:03:28.086Z,16.10
2023-07-14T23:05:55.436Z,16.20
2023-07-14T23:08:22.668Z,16.30
2023-07-14T23:10:50.619Z,16.30
2023-07-14T23:13:19.306Z,16.30
2023-07-14T23:15:46.160Z,16.20
2023-07-14T23:18:14.573Z,16.10
2023-07-14T23:20:41.623Z,16.10
2023-07-14T23:23:11.776Z,16.00
2023-07-14T23:25:38.735Z,16.00
2023-07-14T23:28:05.615Z,15.90
2023-07-14T23:30:32.957Z,15.80
2023-07-14T23:33:00.331Z,15.70
2023-07-14T23:35:27.165Z,15.70
2023-07-14T23:37:53.945Z,15.70
2023-07-14T23:40:20.761Z,15.60
2023-07-14T23:42:48.045Z,15.60
2023-07-14T23:45:19.424Z,15.60
2023-07-14T23:47:46.308Z,15.60
2023-07-14T23:50:13.325Z,15.60
2023-07-14T23:52:40.577Z,15.50
2023-07-14T23:55:25.933Z,15.50
2023-07-14T23:57:53.300Z,15.50
